createdAt,value
2022-09-10T00:01:59.409Z,17.40
2022-09-10T00:04:27.492Z,17.40
2022-09-10T00:06:55.331Z,17.40
2022-09-10T00:09:22.317Z,17.50
2022-09-10T00:11:49.140Z,17.40
2022-09-10T00:14:22.528Z,17.50
2022-09-10T00:16:50.092Z,17.50
2022-09-10T00:19:17.930Z,17.50
2022-09-10T00:21:44.671Z,17.50
2022-09-10T00:24:11.904Z,17.50
2022-09-10T00:26:39.614Z,17.50
2022-09-10T00:29:09.327Z,17.50
2022-09-10T00:31:36.947Z,17.50
2022-09-10T00:34:04.215Z,17.50
2022-09-10T00:36:35.949Z,17.50
2022-09-10T00:39:05.919Z,17.50
2022-09-10T00:41:33.884Z,17.50
2022-09-10T00:44:03.043Z,17.50
2022-09-10T00:46:50.440Z,17.50
2022-09-10T00:49:26.988Z,17.60
2022-09-10T00:51:54.401Z,17.60
2022-09-10T00:54:24.118Z,17.60
2022-09-10T00:56:53.836Z,17.60
2022-09-10T00:59:22.610Z,17.60
2022-09-10T01:01:49.815Z,17.60
2022-09-10T01:04:16.684Z,17.60
2022-09-10T01:06:45.700Z,17.60
2022-09-10T01:09:13.700Z,17.60
2022-09-10T01:12:19.882Z,17.60
2022-09-10T01:15:10.586Z,17.60
2022-09-10T01:17:58.551Z,17.70
2022-09-10T01:20:52.535Z,17.60
2022-09-10T01:23:43.645Z,17.60
2022-09-10T01:26:51.255Z,17.60
2022-09-10T01:29:26.816Z,17.60
2022-09-10T01:32:20.989Z,17.60
2022-09-10T01:35:02.328Z,17.60
2022-09-10T01:37:35.597Z,17.50
2022-09-10T01:40:04.024Z,17.50
2022-09-10T01:42:31.603Z,17.50
2022-09-10T01:44:58.248Z,17.50
2022-09-10T01:47:54.309Z,17.50
2022-09-10T01:50:57.125Z,17.50
2022-09-10T01:53:30.946Z,17.40
2022-09-10T01:56:09.774Z,17.40
2022-09-10T01:58:40.622Z,17.40
2022-09-10T02:01:20.220Z,17.40
2022-09-10T02:03:50.560Z,17.40
2022-09-10T02:06:19.703Z,17.40
2022-09-10T02:08:49.441Z,17.30
2022-09-10T02:11:16.110Z,17.30
2022-09-10T02:13:42.872Z,17.30
2022-09-10T02:16:14.144Z,17.30
2022-09-10T02:18:42.574Z,17.30
2022-09-10T02:21:11.580Z,17.20
2022-09-10T02:23:44.317Z,17.20
2022-09-10T02:26:14.364Z,17.20
2022-09-10T02:28:43.519Z,17.20
2022-09-10T02:31:10.446Z,17.10
2022-09-10T02:33:37.254Z,17.20
2022-09-10T02:36:03.970Z,17.20
2022-09-10T02:38:30.623Z,17.10
2022-09-10T02:40:59.209Z,17.20
2022-09-10T02:43:29.567Z,17.20
2022-09-10T02:45:57.131Z,17.10
2022-09-10T02:48:27.625Z,17.10
2022-09-10T02:50:54.315Z,17.10
2022-09-10T02:53:21.085Z,17.00
2022-09-10T02:55:48.520Z,17.10
2022-09-10T02:58:16.310Z,17.00
2022-09-10T03:00:44.090Z,17.00
2022-09-10T03:03:11.699Z,17.00
2022-09-10T03:05:38.855Z,16.90
2022-09-10T03:08:06.179Z,16.90
2022-09-10T03:10:33.062Z,16.90
2022-09-10T03:13:00.409Z,16.90
2022-09-10T03:15:27.717Z,16.90
2022-09-10T03:17:54.611Z,16.90
2022-09-10T03:20:22.976Z,16.90
2022-09-10T03:22:52.684Z,16.90
2022-09-10T03:25:19.599Z,16.90
2022-09-10T03:27:46.243Z,16.90
2022-09-10T03:30:13.297Z,16.90
2022-09-10T03:32:40.141Z,16.90
2022-09-10T03:35:07.125Z,17.00
2022-09-10T03:37:33.762Z,17.00
2022-09-10T03:40:00.548Z,17.00
2022-09-10T03:42:27.350Z,16.90
2022-09-10T03:44:54.056Z,17.00
2022-09-10T03:47:20.688Z,17.00
2022-09-10T03:49:47.303Z,17.00
2022-09-10T03:52:13.957Z,17.00
2022-09-10T03:54:40.682Z,16.90
2022-09-10T03:57:08.444Z,16.90
2022-09-10T03:59:35.381Z,16.90
2022-09-10T04:02:02.927Z,16.90
2022-09-10T04:04:31.430Z,16.90
2022-09-10T04:06:58.061Z,16.90
2022-09-10T04:09:24.666Z,16.90
2022-09-10T04:11:51.853Z,16.80
2022-09-10T04:14:19.496Z,16.80
2022-09-10T04:16:46.219Z,16.80
2022-09-10T04:19:12.895Z,16.90
2022-09-10T04:21:39.493Z,16.90
2022-09-10T04:24:06.342Z,16.90
2022-09-10T04:26:32.984Z,16.90
2022-09-10T04:28:59.686Z,16.90
2022-09-10T04:31:26.547Z,16.90
2022-09-10T04:33:53.644Z,16.80
2022-09-10T04:36:20.594Z,16.80
2022-09-10T04:38:47.259Z,16.80
2022-09-10T04:41:15.597Z,16.80
2022-09-10T04:43:42.345Z,16.90
2022-09-10T04:46:08.993Z,16.80
2022-09-10T04:48:35.662Z,16.80
2022-09-10T04:51:18.389Z,16.70
2022-09-10T04:53:45.950Z,16.70
2022-09-10T04:56:13.078Z,16.70
2022-09-10T04:58:41.086Z,16.70
2022-09-10T05:01:08.137Z,16.70
2022-09-10T05:03:34.858Z,16.70
2022-09-10T05:06:01.816Z,16.70
2022-09-10T05:08:29.490Z,16.70
2022-09-10T05:10:56.322Z,16.60
2022-09-10T05:13:24.163Z,16.60
2022-09-10T05:15:50.963Z,16.60
2022-09-10T05:18:17.567Z,16.70
2022-09-10T05:20:44.976Z,16.70
2022-09-10T05:23:11.836Z,16.70
2022-09-10T05:25:39.167Z,16.70
2022-09-10T05:28:05.992Z,16.60
2022-09-10T05:30:32.890Z,16.60
2022-09-10T05:33:03.393Z,16.60
2022-09-10T05:35:30.286Z,16.60
2022-09-10T05:37:57.651Z,16.70
2022-09-10T05:40:25.401Z,16.70
2022-09-10T05:42:52.849Z,16.60
2022-09-10T05:45:20.234Z,16.60
2022-09-10T05:47:47.561Z,16.60
2022-09-10T05:50:14.553Z,16.60
2022-09-10T05:52:41.376Z,16.60
2022-09-10T05:55:09.063Z,16.50
2022-09-10T05:57:35.685Z,16.50
2022-09-10T06:00:08.709Z,16.60
2022-09-10T06:02:36.310Z,16.60
2022-09-10T06:05:03.571Z,16.60
2022-09-10T06:07:31.188Z,16.60
2022-09-10T06:09:57.857Z,16.60
2022-09-10T06:12:24.513Z,16.60
2022-09-10T06:14:51.127Z,16.60
2022-09-10T06:17:17.771Z,16.60
2022-09-10T06:19:45.577Z,16.60
2022-09-10T06:22:13.769Z,16.60
2022-09-10T06:24:40.485Z,16.60
2022-09-10T06:27:07.138Z,16.70
2022-09-10T06:29:36.075Z,16.70
2022-09-10T06:32:03.347Z,16.70
2022-09-10T06:34:29.978Z,16.70
2022-09-10T06:36:58.320Z,16.70
2022-09-10T06:39:25.068Z,16.70
2022-09-10T06:41:53.164Z,16.70
2022-09-10T06:44:22.272Z,16.60
2022-09-10T06:49:36.475Z,16.60
2022-09-10T06:52:03.356Z,16.60
2022-09-10T06:54:29.948Z,16.60
2022-09-10T06:56:57.833Z,16.60
2022-09-10T06:59:24.455Z,16.60
2022-09-10T07:01:51.173Z,16.60
2022-09-10T07:04:18.048Z,16.60
2022-09-10T07:06:45.979Z,16.60
2022-09-10T07:09:12.828Z,16.60
2022-09-10T07:11:41.679Z,16.70
2022-09-10T07:14:12.813Z,16.70
2022-09-10T07:16:44.635Z,16.70
2022-09-10T07:19:14.803Z,16.60
2022-09-10T07:21:41.695Z,16.60
2022-09-10T07:24:12.377Z,16.70
2022-09-10T07:26:39.076Z,16.60
2022-09-10T07:29:05.946Z,16.70
2022-09-10T07:31:34.807Z,16.70
2022-09-10T07:34:02.701Z,16.60
2022-09-10T07:36:29.971Z,16.60
2022-09-10T07:38:57.863Z,16.60
2022-09-10T07:41:28.041Z,16.70
2022-09-10T07:43:55.503Z,16.70
2022-09-10T07:46:24.846Z,16.70
2022-09-10T07:48:58.910Z,16.80
2022-09-10T07:51:27.838Z,16.90
2022-09-10T07:53:56.594Z,16.90
2022-09-10T07:56:23.821Z,16.80
2022-09-10T07:58:51.609Z,16.80
2022-09-10T08:01:19.680Z,16.80
2022-09-10T08:03:46.738Z,16.80
2022-09-10T08:06:13.431Z,16.80
2022-09-10T08:08:40.454Z,16.90
2022-09-10T08:11:18.248Z,16.90
2022-09-10T08:13:50.770Z,16.90
2022-09-10T08:16:19.960Z,16.90
2022-09-10T08:18:48.603Z,17.00
2022-09-10T08:21:16.603Z,16.90
2022-09-10T08:23:48.439Z,16.90
2022-09-10T08:26:15.075Z,16.90
2022-09-10T08:28:44.081Z,16.80
2022-09-10T08:31:12.335Z,16.80
2022-09-10T08:33:39.713Z,16.80
2022-09-10T08:36:08.651Z,16.80
2022-09-10T08:38:37.208Z,16.90
2022-09-10T08:41:21.850Z,16.80
2022-09-10T08:43:51.156Z,16.80
2022-09-10T08:46:40.806Z,16.80
2022-09-10T08:49:30.469Z,16.90
2022-09-10T08:52:31.980Z,16.90
2022-09-10T08:55:13.825Z,16.90
2022-09-10T08:57:47.105Z,16.90
2022-09-10T09:00:23.386Z,16.90
2022-09-10T09:03:18.113Z,16.90
2022-09-10T09:05:55.636Z,16.80
2022-09-10T09:08:25.501Z,16.80
2022-09-10T09:11:13.224Z,16.80
2022-09-10T09:13:44.554Z,16.80
2022-09-10T09:16:14.280Z,16.90
2022-09-10T09:18:56.133Z,17.00
2022-09-10T09:21:45.720Z,17.00
2022-09-10T09:24:41.685Z,17.10
2022-09-10T09:27:15.105Z,17.10
2022-09-10T09:29:55.600Z,17.20
2022-09-10T09:32:23.737Z,17.20
2022-09-10T09:34:54.946Z,17.30
2022-09-10T09:37:31.456Z,17.40
2022-09-10T09:40:06.936Z,17.40
2022-09-10T09:42:54.072Z,17.50
2022-09-10T09:45:47.695Z,17.60
2022-09-10T09:48:18.005Z,17.60
2022-09-10T09:50:53.376Z,17.70
2022-09-10T09:53:23.747Z,17.70
2022-09-10T09:55:53.643Z,17.80
2022-09-10T09:58:29.511Z,17.90
2022-09-10T10:01:05.174Z,18.00
2022-09-10T10:03:43.989Z,18.10
2022-09-10T10:06:12.167Z,18.20
2022-09-10T10:08:52.194Z,18.40
2022-09-10T10:11:21.347Z,18.40
2022-09-10T10:13:51.350Z,18.50
2022-09-10T10:16:36.202Z,18.50
2022-09-10T10:19:03.516Z,18.60
2022-09-10T10:21:32.310Z,18.70
2022-09-10T10:23:59.033Z,18.80
2022-09-10T10:26:33.683Z,18.90
2022-09-10T10:29:17.113Z,19.00
2022-09-10T10:31:46.277Z,19.00
2022-09-10T10:34:15.610Z,19.00
2022-09-10T10:37:16.060Z,19.10
2022-09-10T10:40:02.929Z,19.10
2022-09-10T10:42:54.341Z,19.10
2022-09-10T10:45:37.144Z,19.10
2022-09-10T10:48:16.059Z,19.20
2022-09-10T10:51:02.746Z,19.30
2022-09-10T10:53:56.389Z,19.40
2022-09-10T10:56:46.992Z,19.40
2022-09-10T10:59:38.907Z,19.40
2022-09-10T11:02:16.086Z,19.30
2022-09-10T11:04:51.514Z,19.20
2022-09-10T11:07:27.376Z,19.20
2022-09-10T11:10:01.691Z,19.10
2022-09-10T11:12:39.936Z,19.10
2022-09-10T11:15:24.634Z,19.20
2022-09-10T11:17:58.997Z,19.20
2022-09-10T11:20:35.354Z,19.30
2022-09-10T11:23:26.302Z,19.30
2022-09-10T11:26:14.736Z,19.50
2022-09-10T11:28:54.266Z,19.60
2022-09-10T11:31:30.656Z,19.70
2022-09-10T11:34:03.111Z,19.80
2022-09-10T11:36:52.794Z,19.90
2022-09-10T11:39:29.364Z,19.90
2022-09-10T11:42:00.016Z,19.90
2022-09-10T11:44:56.021Z,19.90
2022-09-10T11:47:34.235Z,19.80
2022-09-10T11:50:25.602Z,19.70
2022-09-10T11:52:53.369Z,19.70
2022-09-10T11:55:21.904Z,19.50
2022-09-10T11:58:15.815Z,19.50
2022-09-10T12:00:58.873Z,19.60
2022-09-10T12:03:59.554Z,19.60
2022-09-10T12:07:00.203Z,19.80
2022-09-10T12:09:38.755Z,19.90
2022-09-10T12:12:38.061Z,20.00
2022-09-10T12:15:22.386Z,20.00
2022-09-10T12:17:59.294Z,20.10
2022-09-10T12:20:33.666Z,20.10
2022-09-10T12:23:00.547Z,20.00
2022-09-10T12:25:34.244Z,20.10
2022-09-10T12:28:05.413Z,20.10
2022-09-10T12:30:33.479Z,20.20
2022-09-10T12:33:27.535Z,20.30
2022-09-10T12:35:54.216Z,20.40
2022-09-10T12:38:47.321Z,20.50
2022-09-10T12:41:36.620Z,20.50
2022-09-10T12:44:38.844Z,20.60
2022-09-10T12:47:17.562Z,20.70
2022-09-10T12:49:55.314Z,20.80
2022-09-10T12:52:42.697Z,20.70
2022-09-10T12:55:59.471Z,20.60
2022-09-10T12:58:58.952Z,20.50
2022-09-10T13:01:46.224Z,20.50
2022-09-10T13:04:24.441Z,20.50
2022-09-10T13:06:54.278Z,20.50
2022-09-10T13:09:34.321Z,20.50
2022-09-10T13:12:06.626Z,20.60
2022-09-10T13:14:39.483Z,20.60
2022-09-10T13:17:06.849Z,20.60
2022-09-10T13:19:36.419Z,20.60
2022-09-10T13:22:03.499Z,20.60
2022-09-10T13:24:38.191Z,20.70
2022-09-10T13:27:43.534Z,20.70
2022-09-10T13:30:23.017Z,20.70
2022-09-10T13:32:57.416Z,20.60
2022-09-10T13:35:45.432Z,20.60
2022-09-10T13:38:40.853Z,20.50
2022-09-10T13:41:45.078Z,20.40
2022-09-10T13:44:39.928Z,20.30
2022-09-10T13:47:17.485Z,20.10
2022-09-10T13:50:14.480Z,19.90
2022-09-10T13:52:45.239Z,19.90
2022-09-10T13:55:20.870Z,19.80
2022-09-10T13:57:50.094Z,19.80
2022-09-10T14:00:23.676Z,19.80
2022-09-10T14:02:58.681Z,19.90
2022-09-10T14:05:26.283Z,19.90
2022-09-10T14:08:02.577Z,19.90
2022-09-10T14:10:29.351Z,19.90
2022-09-10T14:12:57.815Z,20.00
2022-09-10T14:15:30.007Z,20.00
2022-09-10T14:17:59.312Z,20.00
2022-09-10T14:20:28.373Z,20.00
2022-09-10T14:23:04.545Z,20.00
2022-09-10T14:25:37.347Z,20.00
2022-09-10T14:28:16.153Z,20.00
2022-09-10T14:30:44.531Z,20.00
2022-09-10T14:33:22.458Z,19.90
2022-09-10T14:35:51.690Z,20.00
2022-09-10T14:38:30.336Z,20.00
2022-09-10T14:41:10.929Z,20.00
2022-09-10T14:43:40.331Z,20.10
2022-09-10T14:46:09.015Z,20.10
2022-09-10T14:48:37.046Z,20.10
2022-09-10T14:51:12.805Z,20.00
2022-09-10T14:53:41.147Z,19.70
2022-09-10T14:56:33.871Z,19.20
2022-09-10T14:59:16.802Z,18.60
2022-09-10T15:01:48.369Z,18.40
2022-09-10T15:04:23.552Z,18.20
2022-09-10T15:06:54.566Z,18.00
2022-09-10T15:09:21.734Z,18.00
2022-09-10T15:11:54.749Z,18.00
2022-09-10T15:14:22.219Z,18.00
2022-09-10T15:16:53.063Z,18.00
2022-09-10T15:19:20.621Z,18.10
2022-09-10T15:21:47.460Z,18.20
2022-09-10T15:24:16.995Z,18.10
2022-09-10T15:26:44.513Z,18.10
2022-09-10T15:29:11.769Z,18.10
2022-09-10T15:31:39.218Z,18.10
2022-09-10T15:34:07.902Z,18.10
2022-09-10T15:36:35.540Z,18.10
2022-09-10T15:39:03.462Z,18.00
2022-09-10T15:41:30.449Z,18.10
2022-09-10T15:43:57.500Z,18.00
2022-09-10T15:46:24.638Z,18.00
2022-09-10T15:48:52.968Z,18.00
2022-09-10T15:51:22.943Z,18.10
2022-09-10T15:53:52.219Z,18.10
2022-09-10T15:56:20.793Z,18.10
2022-09-10T15:58:52.296Z,18.10
2022-09-10T16:01:19.381Z,18.20
2022-09-10T16:03:51.763Z,18.20
2022-09-10T16:06:19.755Z,18.20
2022-09-10T16:08:56.925Z,18.20
2022-09-10T16:11:25.178Z,18.20
2022-09-10T16:13:52.289Z,18.20
2022-09-10T16:16:20.938Z,18.20
2022-09-10T16:18:48.524Z,18.20
2022-09-10T16:21:22.326Z,18.20
2022-09-10T16:23:50.944Z,18.10
2022-09-10T16:26:21.437Z,18.20
2022-09-10T16:28:56.449Z,18.10
2022-09-10T16:31:27.002Z,18.10
2022-09-10T16:33:55.356Z,18.10
2022-09-10T16:36:23.436Z,18.10
2022-09-10T16:38:55.874Z,18.10
2022-09-10T16:41:23.882Z,18.10
2022-09-10T16:43:51.101Z,18.10
2022-09-10T16:46:18.475Z,18.10
2022-09-10T16:48:45.558Z,18.10
2022-09-10T16:51:15.622Z,18.00
2022-09-10T16:53:44.975Z,18.00
2022-09-10T16:56:16.633Z,17.90
2022-09-10T16:58:47.631Z,17.90
2022-09-10T17:01:14.963Z,17.90
2022-09-10T17:03:49.449Z,18.00
2022-09-10T17:06:18.427Z,17.90
2022-09-10T17:08:45.615Z,17.90
2022-09-10T17:11:14.257Z,17.90
2022-09-10T17:13:41.692Z,17.90
2022-09-10T17:16:25.379Z,17.90
2022-09-10T17:19:15.563Z,17.80
2022-09-10T17:21:44.433Z,17.80
2022-09-10T17:24:12.977Z,17.80
2022-09-10T17:26:40.709Z,17.80
2022-09-10T17:29:15.865Z,17.80
2022-09-10T17:31:43.421Z,17.80
2022-09-10T17:34:14.291Z,17.80
2022-09-10T17:36:45.779Z,17.70
2022-09-10T17:39:13.072Z,17.70
2022-09-10T17:41:40.021Z,17.70
2022-09-10T17:44:07.913Z,17.70
2022-09-10T17:46:36.065Z,17.70
2022-09-10T17:49:03.849Z,17.70
2022-09-10T17:51:32.064Z,17.70
2022-09-10T17:53:59.204Z,17.70
2022-09-10T17:56:26.841Z,17.60
2022-09-10T17:58:59.157Z,17.60
2022-09-10T18:01:28.989Z,17.60
2022-09-10T18:03:55.889Z,17.60
2022-09-10T18:06:24.433Z,17.60
2022-09-10T18:08:51.907Z,17.60
2022-09-10T18:11:22.676Z,17.60
2022-09-10T18:13:52.066Z,17.60
2022-09-10T18:16:24.311Z,17.50
2022-09-10T18:18:56.542Z,17.50
2022-09-10T18:21:27.025Z,17.50
2022-09-10T18:23:55.843Z,17.50
2022-09-10T18:26:25.169Z,17.40
2022-09-10T18:28:56.375Z,17.30
2022-09-10T18:31:24.583Z,17.30
2022-09-10T18:33:51.272Z,17.30
2022-09-10T18:36:19.119Z,17.30
2022-09-10T18:38:47.157Z,17.30
2022-09-10T18:41:36.384Z,17.30
2022-09-10T18:44:05.704Z,17.20
2022-09-10T18:46:33.603Z,17.20
2022-09-10T18:49:02.252Z,17.20
2022-09-10T18:51:30.097Z,17.20
2022-09-10T18:53:59.900Z,17.20
2022-09-10T18:56:29.835Z,17.20
2022-09-10T18:59:03.068Z,17.20
2022-09-10T19:01:31.176Z,17.20
2022-09-10T19:03:58.262Z,17.20
2022-09-10T19:06:28.151Z,17.10
2022-09-10T19:09:00.600Z,17.20
2022-09-10T19:11:34.422Z,17.20
2022-09-10T19:14:04.606Z,17.20
2022-09-10T19:16:33.778Z,17.20
2022-09-10T19:19:03.567Z,17.20
2022-09-10T19:21:32.521Z,17.20
2022-09-10T19:24:01.533Z,17.20
2022-09-10T19:26:31.619Z,17.20
2022-09-10T19:29:00.330Z,17.20
2022-09-10T19:31:29.097Z,17.10
2022-09-10T19:33:57.724Z,17.10
2022-09-10T19:36:27.469Z,17.10
2022-09-10T19:38:55.097Z,17.10
2022-09-10T19:41:22.231Z,17.00
2022-09-10T19:43:51.446Z,17.00
2022-09-10T19:46:20.153Z,17.00
2022-09-10T19:48:47.741Z,17.00
2022-09-10T19:51:18.993Z,16.90
2022-09-10T19:53:46.824Z,16.90
2022-09-10T19:56:22.232Z,17.00
2022-09-10T19:58:50.923Z,16.90
2022-09-10T20:01:24.840Z,16.90
2022-09-10T20:03:53.366Z,16.90
2022-09-10T20:06:23.836Z,16.90
2022-09-10T20:08:50.623Z,16.90
2022-09-10T20:11:27.523Z,16.90
2022-09-10T20:14:02.505Z,16.90
2022-09-10T20:16:29.943Z,16.90
2022-09-10T20:18:56.739Z,16.80
2022-09-10T20:21:27.324Z,16.70
2022-09-10T20:23:57.745Z,16.70
2022-09-10T20:26:31.647Z,16.70
2022-09-10T20:29:01.190Z,16.70
2022-09-10T20:31:29.468Z,16.70
2022-09-10T20:33:57.851Z,16.60
2022-09-10T20:36:25.993Z,16.60
2022-09-10T20:38:53.932Z,16.60
2022-09-10T20:41:21.285Z,16.60
2022-09-10T20:43:51.978Z,16.50
2022-09-10T20:46:22.389Z,16.50
2022-09-10T20:48:50.751Z,16.50
2022-09-10T20:51:21.480Z,16.50
2022-09-10T20:53:48.616Z,16.50
2022-09-10T20:56:18.281Z,16.50
2022-09-10T20:58:46.760Z,16.40
2022-09-10T21:01:19.419Z,16.40
2022-09-10T21:03:47.549Z,16.40
2022-09-10T21:06:18.270Z,16.50
2022-09-10T21:08:47.486Z,16.50
2022-09-10T21:11:17.192Z,16.50
2022-09-10T21:13:45.332Z,16.50
2022-09-10T21:16:19.695Z,16.50
2022-09-10T21:18:50.930Z,16.50
2022-09-10T21:21:23.048Z,16.50
2022-09-10T21:23:51.646Z,16.50
2022-09-10T21:26:20.712Z,16.50
2022-09-10T21:28:47.909Z,16.40
2022-09-10T21:31:14.958Z,16.30
2022-09-10T21:33:43.308Z,16.30
2022-09-10T21:36:16.070Z,16.30
2022-09-10T21:38:49.258Z,16.30
2022-09-10T21:41:18.590Z,16.30
2022-09-10T21:43:47.079Z,16.30
2022-09-10T21:46:14.303Z,16.40
2022-09-10T21:48:42.409Z,16.40
2022-09-10T21:51:13.658Z,16.40
2022-09-10T21:53:41.560Z,16.40
2022-09-10T21:56:09.969Z,16.40
2022-09-10T21:58:37.450Z,16.40
2022-09-10T22:01:11.758Z,16.50
2022-09-10T22:03:38.935Z,16.50
2022-09-10T22:06:23.065Z,16.40
2022-09-10T22:08:52.549Z,16.40
2022-09-10T22:11:24.151Z,16.50
2022-09-10T22:13:53.169Z,16.50
2022-09-10T22:16:20.932Z,16.40
2022-09-10T22:18:48.534Z,16.40
2022-09-10T22:21:16.709Z,16.40
2022-09-10T22:23:44.546Z,16.40
2022-09-10T22:26:14.234Z,16.30
2022-09-10T22:28:41.608Z,16.30
2022-09-10T22:31:10.130Z,16.30
2022-09-10T22:33:44.614Z,16.30
2022-09-10T22:36:14.177Z,16.30
2022-09-10T22:38:42.731Z,16.30
2022-09-10T22:41:10.650Z,16.30
2022-09-10T22:43:38.507Z,16.30
2022-09-10T22:46:07.227Z,16.30
2022-09-10T22:48:37.371Z,16.30
2022-09-10T22:51:05.613Z,16.40
2022-09-10T22:53:32.759Z,16.30
2022-09-10T22:55:59.416Z,16.40
2022-09-10T22:58:27.250Z,16.30
2022-09-10T23:00:54.433Z,16.30
2022-09-10T23:03:21.833Z,16.30
2022-09-10T23:05:49.145Z,16.30
2022-09-10T23:08:17.060Z,16.30
2022-09-10T23:10:43.720Z,16.20
2022-09-10T23:13:10.605Z,16.30
2022-09-10T23:15:37.190Z,16.30
2022-09-10T23:18:03.830Z,16.30
2022-09-10T23:20:30.903Z,16.30
2022-09-10T23:22:57.519Z,16.40
2022-09-10T23:25:24.154Z,16.40
2022-09-10T23:27:51.644Z,16.40
2022-09-10T23:30:18.647Z,16.40
2022-09-10T23:32:46.456Z,16.40
2022-09-10T23:35:13.166Z,16.30
2022-09-10T23:37:40.024Z,16.30
2022-09-10T23:40:08.486Z,16.30
2022-09-10T23:42:35.530Z,16.30
2022-09-10T23:45:02.153Z,16.30
2022-09-10T23:47:28.767Z,16.30
2022-09-10T23:49:56.065Z,16.30
2022-09-10T23:52:23.061Z,16.30
2022-09-10T23:54:49.881Z,16.30
2022-09-10T23:57:17.439Z,16.30
2022-09-10T23:59:44.276Z,16.30
